sensor_id;sensor_type;location;lat;lon;timestamp;pressure;altitude;pressure_sealevel;temperature;humidity
49645;BME280;36494;50.730;-1.932;2023-06-26T00:01:55;101221.13;;;16.89;100.00
49645;BME280;36494;50.730;-1.932;2023-06-26T00:04:21;101223.09;;;16.87;100.00
49645;BME280;36494;50.730;-1.932;2023-06-26T00:06:46;101226.19;;;16.82;100.00
49645;BME280;36494;50.730;-1.932;2023-06-26T00:09:11;101228.51;;;16.75;100.00
49645;BME280;36494;50.730;-1.932;2023-06-26T00:11:37;101229.21;;;16.77;100.00
49645;BME280;36494;50.730;-1.932;2023-06-26T00:14:02;101229.43;;;16.76;100.00
49645;BME280;36494;50.730;-1.932;2023-06-26T00:16:27;101228.47;;;16.70;100.00
49645;BME280;36494;50.730;-1.932;2023-06-26T00:18:53;101231.02;;;16.69;100.00
49645;BME280;36494;50.730;-1.932;2023-06-26T00:21:19;101227.41;;;16.64;100.00
49645;BME280;36494;50.730;-1.932;2023-06-26T00:23:44;101232.56;;;16.64;100.00
49645;BME280;36494;50.730;-1.932;2023-06-26T00:26:09;101234.29;;;16.58;100.00
49645;BME280;36494;50.730;-1.932;2023-06-26T00:28:34;101234.95;;;16.60;100.00
49645;BME280;36494;50.730;-1.932;2023-06-26T00:31:00;101236.97;;;16.55;100.00
49645;BME280;36494;50.730;-1.932;2023-06-26T00:33:26;101236.50;;;16.51;100.00
49645;BME280;36494;50.730;-1.932;2023-06-26T00:35:51;101238.87;;;16.51;100.00
49645;BME280;36494;50.730;-1.932;2023-06-26T00:38:16;101241.49;;;16.49;100.00
49645;BME280;36494;50.730;-1.932;2023-06-26T00:40:42;101245.42;;;16.48;100.00
49645;BME280;36494;50.730;-1.932;2023-06-26T00:43:07;101243.72;;;16.48;100.00
49645;BME280;36494;50.730;-1.932;2023-06-26T00:45:32;101246.26;;;16.43;100.00
49645;BME280;36494;50.730;-1.932;2023-06-26T00:47:58;101246.08;;;16.39;100.00
49645;BME280;36494;50.730;-1.932;2023-06-26T00:50:23;101244.31;;;16.36;100.00
49645;BME280;36494;50.730;-1.932;2023-06-26T00:52:49;101249.07;;;16.32;100.00
49645;BME280;36494;50.730;-1.932;2023-06-26T00:55:14;101253.54;;;16.32;100.00
49645;BME280;36494;50.730;-1.932;2023-06-26T00:57:40;101252.51;;;16.30;100.00
49645;BME280;36494;50.730;-1.932;2023-06-26T01:00:06;101251.52;;;16.28;100.00
49645;BME280;36494;50.730;-1.932;2023-06-26T01:02:31;101254.17;;;16.25;100.00
49645;BME280;36494;50.730;-1.932;2023-06-26T01:04:56;101254.34;;;16.22;100.00
49645;BME280;36494;50.730;-1.932;2023-06-26T01:07:22;101256.37;;;16.20;100.00
49645;BME280;36494;50.730;-1.932;2023-06-26T01:09:48;101258.28;;;16.15;100.00
49645;BME280;36494;50.730;-1.932;2023-06-26T01:12:12;101262.18;;;16.10;100.00
49645;BME280;36494;50.730;-1.932;2023-06-26T01:14:37;101265.21;;;16.06;100.00
49645;BME280;36494;50.730;-1.932;2023-06-26T01:17:04;101266.31;;;16.02;100.00
49645;BME280;36494;50.730;-1.932;2023-06-26T01:19:30;101268.77;;;16.03;100.00
49645;BME280;36494;50.730;-1.932;2023-06-26T01:21:58;101271.27;;;15.98;100.00
49645;BME280;36494;50.730;-1.932;2023-06-26T01:24:20;101271.95;;;15.97;100.00
49645;BME280;36494;50.730;-1.932;2023-06-26T01:26:45;101274.82;;;15.93;100.00
49645;BME280;36494;50.730;-1.932;2023-06-26T01:29:11;101276.99;;;15.90;100.00
49645;BME280;36494;50.730;-1.932;2023-06-26T01:31:36;101274.84;;;15.89;100.00
49645;BME280;36494;50.730;-1.932;2023-06-26T01:34:01;101277.71;;;15.88;100.00
49645;BME280;36494;50.730;-1.932;2023-06-26T01:36:27;101278.62;;;15.82;100.00
49645;BME280;36494;50.730;-1.932;2023-06-26T01:38:51;101281.08;;;15.82;100.00
49645;BME280;36494;50.730;-1.932;2023-06-26T01:41:17;101288.39;;;15.79;100.00
49645;BME280;36494;50.730;-1.932;2023-06-26T01:46:14;101296.13;;;15.73;100.00
49645;BME280;36494;50.730;-1.932;2023-06-26T01:48:38;101299.73;;;15.71;100.00
49645;BME280;36494;50.730;-1.932;2023-06-26T01:50:59;101300.17;;;15.61;100.00
49645;BME280;36494;50.730;-1.932;2023-06-26T01:53:25;101301.82;;;15.58;100.00
49645;BME280;36494;50.730;-1.932;2023-06-26T01:55:51;101306.82;;;15.53;100.00
49645;BME280;36494;50.730;-1.932;2023-06-26T01:58:15;101309.78;;;15.55;100.00
49645;BME280;36494;50.730;-1.932;2023-06-26T02:00:41;101310.68;;;15.58;100.00
49645;BME280;36494;50.730;-1.932;2023-06-26T02:03:06;101311.98;;;15.55;100.00
49645;BME280;36494;50.730;-1.932;2023-06-26T02:05:32;101312.25;;;15.52;100.00
49645;BME280;36494;50.730;-1.932;2023-06-26T02:07:57;101313.60;;;15.45;100.00
49645;BME280;36494;50.730;-1.932;2023-06-26T02:10:22;101312.92;;;15.49;100.00
49645;BME280;36494;50.730;-1.932;2023-06-26T02:12:48;101311.61;;;15.46;100.00
49645;BME280;36494;50.730;-1.932;2023-06-26T02:15:13;101314.69;;;15.46;100.00
49645;BME280;36494;50.730;-1.932;2023-06-26T02:17:38;101315.65;;;15.43;100.00
49645;BME280;36494;50.730;-1.932;2023-06-26T02:20:05;101312.87;;;15.45;100.00
49645;BME280;36494;50.730;-1.932;2023-06-26T02:22:29;101313.18;;;15.41;100.00
49645;BME280;36494;50.730;-1.932;2023-06-26T02:24:54;101314.33;;;15.42;100.00
49645;BME280;36494;50.730;-1.932;2023-06-26T02:27:20;101313.21;;;15.41;100.00
49645;BME280;36494;50.730;-1.932;2023-06-26T02:29:46;101314.18;;;15.37;100.00
49645;BME280;36494;50.730;-1.932;2023-06-26T02:32:11;101315.54;;;15.33;100.00
49645;BME280;36494;50.730;-1.932;2023-06-26T02:34:36;101321.15;;;15.27;100.00
49645;BME280;36494;50.730;-1.932;2023-06-26T02:37:02;101320.79;;;15.26;100.00
49645;BME280;36494;50.730;-1.932;2023-06-26T02:39:28;101323.84;;;15.26;100.00
49645;BME280;36494;50.730;-1.932;2023-06-26T02:41:53;101325.13;;;15.29;100.00
49645;BME280;36494;50.730;-1.932;2023-06-26T02:44:18;101328.54;;;15.22;100.00
49645;BME280;36494;50.730;-1.932;2023-06-26T02:46:43;101334.92;;;15.19;100.00
49645;BME280;36494;50.730;-1.932;2023-06-26T02:49:09;101330.95;;;15.20;100.00
49645;BME280;36494;50.730;-1.932;2023-06-26T02:51:34;101333.21;;;15.19;100.00
49645;BME280;36494;50.730;-1.932;2023-06-26T02:54:00;101334.04;;;15.17;100.00
49645;BME280;36494;50.730;-1.932;2023-06-26T02:56:25;101338.00;;;14.98;100.00
49645;BME280;36494;50.730;-1.932;2023-06-26T02:58:50;101342.76;;;15.01;100.00
49645;BME280;36494;50.730;-1.932;2023-06-26T03:01:15;101342.62;;;14.98;100.00
49645;BME280;36494;50.730;-1.932;2023-06-26T03:03:41;101345.20;;;15.03;100.00
49645;BME280;36494;50.730;-1.932;2023-06-26T03:06:07;101342.44;;;15.05;100.00
49645;BME280;36494;50.730;-1.932;2023-06-26T03:08:32;101339.07;;;15.05;100.00
49645;BME280;36494;50.730;-1.932;2023-06-26T03:10:57;101334.73;;;14.97;100.00
49645;BME280;36494;50.730;-1.932;2023-06-26T03:13:23;101337.03;;;15.00;100.00
49645;BME280;36494;50.730;-1.932;2023-06-26T03:15:48;101345.89;;;15.02;100.00
49645;BME280;36494;50.730;-1.932;2023-06-26T03:18:14;101352.10;;;15.01;100.00
49645;BME280;36494;50.730;-1.932;2023-06-26T03:20:39;101349.63;;;14.97;100.00
49645;BME280;36494;50.730;-1.932;2023-06-26T03:23:04;101348.37;;;15.01;100.00
49645;BME280;36494;50.730;-1.932;2023-06-26T03:25:30;101351.67;;;14.98;100.00
49645;BME280;36494;50.730;-1.932;2023-06-26T03:27:55;101356.48;;;14.94;100.00
49645;BME280;36494;50.730;-1.932;2023-06-26T03:30:21;101357.68;;;14.96;100.00
49645;BME280;36494;50.730;-1.932;2023-06-26T03:32:46;101354.83;;;14.94;100.00
49645;BME280;36494;50.730;-1.932;2023-06-26T03:35:11;101351.70;;;14.94;100.00
49645;BME280;36494;50.730;-1.932;2023-06-26T03:37:37;101355.47;;;14.94;100.00
49645;BME280;36494;50.730;-1.932;2023-06-26T03:40:02;101351.95;;;14.92;100.00
49645;BME280;36494;50.730;-1.932;2023-06-26T03:42:27;101351.19;;;14.90;100.00
49645;BME280;36494;50.730;-1.932;2023-06-26T03:44:53;101354.70;;;14.88;100.00
49645;BME280;36494;50.730;-1.932;2023-06-26T03:47:18;101359.23;;;14.86;100.00
49645;BME280;36494;50.730;-1.932;2023-06-26T03:49:43;101364.34;;;14.86;100.00
49645;BME280;36494;50.730;-1.932;2023-06-26T03:52:09;101372.85;;;14.80;100.00
49645;BME280;36494;50.730;-1.932;2023-06-26T03:54:34;101382.18;;;14.77;100.00
49645;BME280;36494;50.730;-1.932;2023-06-26T03:56:59;101385.08;;;14.80;100.00
49645;BME280;36494;50.730;-1.932;2023-06-26T03:59:25;101385.98;;;14.65;100.00
49645;BME280;36494;50.730;-1.932;2023-06-26T04:01:51;101388.92;;;14.66;100.00
49645;BME280;36494;50.730;-1.932;2023-06-26T04:04:16;101391.72;;;14.59;100.00
49645;BME280;36494;50.730;-1.932;2023-06-26T04:06:42;101392.40;;;14.64;100.00
49645;BME280;36494;50.730;-1.932;2023-06-26T04:09:07;101394.94;;;14.67;100.00
49645;BME280;36494;50.730;-1.932;2023-06-26T04:11:33;101393.43;;;14.69;100.00
49645;BME280;36494;50.730;-1.932;2023-06-26T04:13:59;101394.27;;;14.65;100.00
49645;BME280;36494;50.730;-1.932;2023-06-26T04:16:25;101397.21;;;14.66;100.00
49645;BME280;36494;50.730;-1.932;2023-06-26T04:18:50;101403.12;;;14.61;100.00
49645;BME280;36494;50.730;-1.932;2023-06-26T04:21:16;101399.03;;;14.62;100.00
49645;BME280;36494;50.730;-1.932;2023-06-26T04:23:41;101394.86;;;14.57;100.00
49645;BME280;36494;50.730;-1.932;2023-06-26T04:26:07;101397.13;;;14.58;100.00
49645;BME280;36494;50.730;-1.932;2023-06-26T04:28:32;101402.82;;;14.63;100.00
49645;BME280;36494;50.730;-1.932;2023-06-26T04:30:57;101401.78;;;14.64;100.00
49645;BME280;36494;50.730;-1.932;2023-06-26T04:33:23;101401.07;;;14.60;100.00
49645;BME280;36494;50.730;-1.932;2023-06-26T04:35:48;101406.05;;;14.58;100.00
49645;BME280;36494;50.730;-1.932;2023-06-26T04:38:13;101409.13;;;14.57;100.00
49645;BME280;36494;50.730;-1.932;2023-06-26T04:40:38;101413.92;;;14.58;100.00
49645;BME280;36494;50.730;-1.932;2023-06-26T04:43:04;101411.35;;;14.57;100.00
49645;BME280;36494;50.730;-1.932;2023-06-26T04:45:30;101417.46;;;14.59;100.00
49645;BME280;36494;50.730;-1.932;2023-06-26T04:47:55;101420.02;;;14.58;100.00
49645;BME280;36494;50.730;-1.932;2023-06-26T04:50:20;101419.90;;;14.54;100.00
49645;BME280;36494;50.730;-1.932;2023-06-26T04:52:46;101424.06;;;14.52;100.00
49645;BME280;36494;50.730;-1.932;2023-06-26T04:55:12;101417.21;;;14.55;100.00
49645;BME280;36494;50.730;-1.932;2023-06-26T04:57:37;101417.02;;;14.57;100.00
49645;BME280;36494;50.730;-1.932;2023-06-26T05:00:04;101419.88;;;14.57;100.00
49645;BME280;36494;50.730;-1.932;2023-06-26T05:02:28;101417.93;;;14.55;100.00
49645;BME280;36494;50.730;-1.932;2023-06-26T05:04:54;101420.36;;;14.54;100.00
49645;BME280;36494;50.730;-1.932;2023-06-26T05:07:19;101433.59;;;14.55;100.00
49645;BME280;36494;50.730;-1.932;2023-06-26T05:09:44;101437.86;;;14.55;100.00
49645;BME280;36494;50.730;-1.932;2023-06-26T05:12:09;101446.94;;;14.55;100.00
49645;BME280;36494;50.730;-1.932;2023-06-26T05:14:36;101454.77;;;14.54;100.00
49645;BME280;36494;50.730;-1.932;2023-06-26T05:17:01;101453.48;;;14.59;100.00
49645;BME280;36494;50.730;-1.932;2023-06-26T05:19:26;101446.89;;;14.61;100.00
49645;BME280;36494;50.730;-1.932;2023-06-26T05:21:52;101446.15;;;14.59;100.00
49645;BME280;36494;50.730;-1.932;2023-06-26T05:24:18;101451.20;;;14.62;100.00
49645;BME280;36494;50.730;-1.932;2023-06-26T05:26:43;101449.34;;;14.65;100.00
49645;BME280;36494;50.730;-1.932;2023-06-26T05:29:08;101453.80;;;14.67;100.00
49645;BME280;36494;50.730;-1.932;2023-06-26T05:31:34;101444.05;;;14.67;100.00
49645;BME280;36494;50.730;-1.932;2023-06-26T05:34:00;101441.92;;;14.65;100.00
49645;BME280;36494;50.730;-1.932;2023-06-26T05:36:24;101452.33;;;14.68;100.00
49645;BME280;36494;50.730;-1.932;2023-06-26T05:38:49;101459.19;;;14.66;100.00
49645;BME280;36494;50.730;-1.932;2023-06-26T05:41:14;101465.86;;;14.70;100.00
49645;BME280;36494;50.730;-1.932;2023-06-26T05:43:39;101461.98;;;14.71;100.00
49645;BME280;36494;50.730;-1.932;2023-06-26T05:46:04;101448.18;;;14.71;100.00
49645;BME280;36494;50.730;-1.932;2023-06-26T05:48:30;101449.60;;;14.73;100.00
49645;BME280;36494;50.730;-1.932;2023-06-26T05:50:56;101449.69;;;14.74;100.00
49645;BME280;36494;50.730;-1.932;2023-06-26T05:53:21;101453.32;;;14.79;100.00
49645;BME280;36494;50.730;-1.932;2023-06-26T05:55:47;101454.83;;;14.83;100.00
49645;BME280;36494;50.730;-1.932;2023-06-26T05:58:12;101453.83;;;14.87;100.00
49645;BME280;36494;50.730;-1.932;2023-06-26T06:00:38;101462.90;;;14.87;100.00
49645;BME280;36494;50.730;-1.932;2023-06-26T06:03:02;101476.03;;;14.95;100.00
49645;BME280;36494;50.730;-1.932;2023-06-26T06:05:28;101472.30;;;14.97;100.00
49645;BME280;36494;50.730;-1.932;2023-06-26T06:07:53;101483.97;;;15.03;100.00
49645;BME280;36494;50.730;-1.932;2023-06-26T06:10:18;101487.47;;;15.08;100.00
49645;BME280;36494;50.730;-1.932;2023-06-26T06:12:44;101499.72;;;15.13;100.00
49645;BME280;36494;50.730;-1.932;2023-06-26T06:15:09;101487.13;;;15.17;100.00
49645;BME280;36494;50.730;-1.932;2023-06-26T06:17:34;101491.67;;;15.23;100.00
49645;BME280;36494;50.730;-1.932;2023-06-26T06:20:00;101495.18;;;15.31;100.00
49645;BME280;36494;50.730;-1.932;2023-06-26T06:22:25;101508.80;;;15.39;100.00
49645;BME280;36494;50.730;-1.932;2023-06-26T06:24:50;101502.32;;;15.43;100.00
49645;BME280;36494;50.730;-1.932;2023-06-26T06:27:16;101499.29;;;15.52;100.00
49645;BME280;36494;50.730;-1.932;2023-06-26T06:29:41;101488.29;;;15.58;100.00
49645;BME280;36494;50.730;-1.932;2023-06-26T06:32:07;101488.65;;;15.61;100.00
49645;BME280;36494;50.730;-1.932;2023-06-26T06:34:32;101496.76;;;15.63;100.00
49645;BME280;36494;50.730;-1.932;2023-06-26T06:36:58;101495.56;;;15.70;100.00
49645;BME280;36494;50.730;-1.932;2023-06-26T06:39:23;101496.83;;;15.73;100.00
49645;BME280;36494;50.730;-1.932;2023-06-26T06:41:49;101511.34;;;15.73;100.00
49645;BME280;36494;50.730;-1.932;2023-06-26T06:44:14;101517.60;;;15.82;100.00
49645;BME280;36494;50.730;-1.932;2023-06-26T06:46:39;101513.72;;;15.90;100.00
49645;BME280;36494;50.730;-1.932;2023-06-26T06:49:05;101528.47;;;15.98;100.00
49645;BME280;36494;50.730;-1.932;2023-06-26T06:51:30;101523.74;;;16.04;100.00
49645;BME280;36494;50.730;-1.932;2023-06-26T06:53:55;101522.29;;;16.06;100.00
49645;BME280;36494;50.730;-1.932;2023-06-26T06:56:20;101528.81;;;16.13;100.00
49645;BME280;36494;50.730;-1.932;2023-06-26T06:58:46;101524.01;;;16.24;100.00
49645;BME280;36494;50.730;-1.932;2023-06-26T07:01:11;101518.76;;;16.33;100.00
49645;BME280;36494;50.730;-1.932;2023-06-26T07:03:36;101526.32;;;16.39;100.00
49645;BME280;36494;50.730;-1.932;2023-06-26T07:06:02;101527.95;;;16.48;100.00
49645;BME280;36494;50.730;-1.932;2023-06-26T07:08:27;101523.70;;;16.53;100.00
49645;BME280;36494;50.730;-1.932;2023-06-26T07:10:52;101516.54;;;16.58;100.00
49645;BME280;36494;50.730;-1.932;2023-06-26T07:13:18;101520.81;;;16.65;100.00
49645;BME280;36494;50.730;-1.932;2023-06-26T07:15:43;101524.14;;;16.71;100.00
49645;BME280;36494;50.730;-1.932;2023-06-26T07:18:09;101521.13;;;16.71;100.00
49645;BME280;36494;50.730;-1.932;2023-06-26T07:20:34;101517.99;;;16.79;100.00
49645;BME280;36494;50.730;-1.932;2023-06-26T07:22:59;101521.62;;;16.84;100.00
49645;BME280;36494;50.730;-1.932;2023-06-26T07:25:25;101527.41;;;16.88;100.00
49645;BME280;36494;50.730;-1.932;2023-06-26T07:27:50;101530.95;;;16.86;100.00
49645;BME280;36494;50.730;-1.932;2023-06-26T07:30:16;101532.95;;;16.89;100.00
49645;BME280;36494;50.730;-1.932;2023-06-26T07:32:41;101541.20;;;16.93;100.00
49645;BME280;36494;50.730;-1.932;2023-06-26T07:35:06;101542.84;;;16.98;100.00
49645;BME280;36494;50.730;-1.932;2023-06-26T07:37:31;101540.39;;;17.06;100.00
49645;BME280;36494;50.730;-1.932;2023-06-26T07:39:56;101545.27;;;17.09;100.00
49645;BME280;36494;50.730;-1.932;2023-06-26T07:42:22;101546.27;;;17.10;100.00
49645;BME280;36494;50.730;-1.932;2023-06-26T07:44:47;101552.00;;;17.15;100.00
49645;BME280;36494;50.730;-1.932;2023-06-26T07:47:12;101560.04;;;17.22;100.00
49645;BME280;36494;50.730;-1.932;2023-06-26T07:49:37;101559.14;;;17.31;100.00
49645;BME280;36494;50.730;-1.932;2023-06-26T07:52:03;101564.30;;;17.41;100.00
49645;BME280;36494;50.730;-1.932;2023-06-26T07:54:28;101570.23;;;17.52;100.00
49645;BME280;36494;50.730;-1.932;2023-06-26T07:56:54;101566.52;;;17.54;100.00
49645;BME280;36494;50.730;-1.932;2023-06-26T07:59:18;101564.96;;;17.57;100.00
49645;BME280;36494;50.730;-1.932;2023-06-26T08:01:44;101572.69;;;17.46;100.00
49645;BME280;36494;50.730;-1.932;2023-06-26T08:04:09;101589.61;;;17.50;100.00
49645;BME280;36494;50.730;-1.932;2023-06-26T08:06:35;101584.18;;;17.52;100.00
49645;BME280;36494;50.730;-1.932;2023-06-26T08:09:00;101568.39;;;17.52;100.00
49645;BME280;36494;50.730;-1.932;2023-06-26T08:11:25;101560.41;;;17.59;100.00
49645;BME280;36494;50.730;-1.932;2023-06-26T08:13:51;101563.77;;;17.73;100.00
49645;BME280;36494;50.730;-1.932;2023-06-26T08:16:16;101560.47;;;17.70;100.00
49645;BME280;36494;50.730;-1.932;2023-06-26T08:18:42;101567.09;;;17.81;100.00
49645;BME280;36494;50.730;-1.932;2023-06-26T08:21:07;101559.27;;;17.85;100.00
49645;BME280;36494;50.730;-1.932;2023-06-26T08:23:33;101567.03;;;17.94;100.00
49645;BME280;36494;50.730;-1.932;2023-06-26T08:25:58;101570.86;;;17.99;100.00
49645;BME280;36494;50.730;-1.932;2023-06-26T08:28:24;101573.58;;;18.05;100.00
49645;BME280;36494;50.730;-1.932;2023-06-26T08:30:49;101582.46;;;18.09;100.00
49645;BME280;36494;50.730;-1.932;2023-06-26T08:33:14;101580.18;;;18.04;100.00
49645;BME280;36494;50.730;-1.932;2023-06-26T08:35:39;101573.29;;;18.14;100.00
49645;BME280;36494;50.730;-1.932;2023-06-26T08:38:05;101564.73;;;18.25;100.00
49645;BME280;36494;50.730;-1.932;2023-06-26T08:40:30;101561.34;;;18.29;100.00
49645;BME280;36494;50.730;-1.932;2023-06-26T08:42:56;101556.88;;;18.35;100.00
49645;BME280;36494;50.730;-1.932;2023-06-26T08:45:22;101555.98;;;18.43;100.00
49645;BME280;36494;50.730;-1.932;2023-06-26T08:47:48;101554.46;;;18.46;100.00
49645;BME280;36494;50.730;-1.932;2023-06-26T08:50:13;101558.66;;;18.50;100.00
49645;BME280;36494;50.730;-1.932;2023-06-26T08:52:43;101564.83;;;18.57;100.00
49645;BME280;36494;50.730;-1.932;2023-06-26T08:55:09;101577.14;;;18.64;100.00
49645;BME280;36494;50.730;-1.932;2023-06-26T08:57:30;101586.23;;;18.74;100.00
49645;BME280;36494;50.730;-1.932;2023-06-26T08:59:55;101584.67;;;18.67;100.00
49645;BME280;36494;50.730;-1.932;2023-06-26T09:02:20;101583.26;;;18.74;100.00
49645;BME280;36494;50.730;-1.932;2023-06-26T09:04:46;101578.20;;;18.73;100.00
49645;BME280;36494;50.730;-1.932;2023-06-26T09:07:12;101574.82;;;18.83;100.00
49645;BME280;36494;50.730;-1.932;2023-06-26T09:09:37;101573.65;;;18.87;100.00
49645;BME280;36494;50.730;-1.932;2023-06-26T09:12:03;101563.93;;;18.98;100.00
49645;BME280;36494;50.730;-1.932;2023-06-26T09:14:28;101568.52;;;19.01;100.00
49645;BME280;36494;50.730;-1.932;2023-06-26T09:16:53;101566.61;;;19.18;100.00
49645;BME280;36494;50.730;-1.932;2023-06-26T09:19:19;101581.67;;;19.37;100.00
49645;BME280;36494;50.730;-1.932;2023-06-26T09:21:44;101578.17;;;19.39;100.00
49645;BME280;36494;50.730;-1.932;2023-06-26T09:24:10;101567.76;;;19.40;100.00
49645;BME280;36494;50.730;-1.932;2023-06-26T09:26:35;101574.78;;;19.39;100.00
49645;BME280;36494;50.730;-1.932;2023-06-26T09:29:00;101571.58;;;19.40;100.00
49645;BME280;36494;50.730;-1.932;2023-06-26T09:31:25;101573.52;;;19.52;100.00
49645;BME280;36494;50.730;-1.932;2023-06-26T09:33:55;101574.43;;;19.64;100.00
49645;BME280;36494;50.730;-1.932;2023-06-26T09:36:20;101577.59;;;19.78;100.00
49645;BME280;36494;50.730;-1.932;2023-06-26T09:38:41;101575.45;;;19.92;100.00
49645;BME280;36494;50.730;-1.932;2023-06-26T09:41:06;101563.20;;;20.16;100.00
49645;BME280;36494;50.730;-1.932;2023-06-26T09:43:31;101562.64;;;20.45;100.00
49645;BME280;36494;50.730;-1.932;2023-06-26T09:45:57;101565.43;;;20.58;100.00
49645;BME280;36494;50.730;-1.932;2023-06-26T09:48:22;101567.21;;;20.70;100.00
49645;BME280;36494;50.730;-1.932;2023-06-26T09:50:48;101563.09;;;20.80;100.00
49645;BME280;36494;50.730;-1.932;2023-06-26T09:53:13;101575.21;;;20.79;100.00
49645;BME280;36494;50.730;-1.932;2023-06-26T09:55:39;101564.52;;;20.90;100.00
49645;BME280;36494;50.730;-1.932;2023-06-26T09:58:03;101557.98;;;21.02;100.00
49645;BME280;36494;50.730;-1.932;2023-06-26T10:00:30;101561.33;;;21.11;100.00
49645;BME280;36494;50.730;-1.932;2023-06-26T10:02:54;101566.65;;;21.26;100.00
49645;BME280;36494;50.730;-1.932;2023-06-26T10:05:20;101569.89;;;21.29;100.00
49645;BME280;36494;50.730;-1.932;2023-06-26T10:07:45;101566.31;;;21.30;100.00
49645;BME280;36494;50.730;-1.932;2023-06-26T10:10:11;101572.80;;;21.36;100.00
49645;BME280;36494;50.730;-1.932;2023-06-26T10:12:35;101583.12;;;21.16;100.00
49645;BME280;36494;50.730;-1.932;2023-06-26T10:15:02;101595.24;;;20.89;100.00
49645;BME280;36494;50.730;-1.932;2023-06-26T10:17:28;101597.43;;;20.98;100.00
49645;BME280;36494;50.730;-1.932;2023-06-26T10:19:52;101601.47;;;21.02;100.00
49645;BME280;36494;50.730;-1.932;2023-06-26T10:22:18;101598.54;;;20.96;100.00
49645;BME280;36494;50.730;-1.932;2023-06-26T10:24:43;101604.23;;;20.96;100.00
49645;BME280;36494;50.730;-1.932;2023-06-26T10:27:12;101607.49;;;21.00;100.00
49645;BME280;36494;50.730;-1.932;2023-06-26T10:29:34;101610.54;;;20.94;100.00
49645;BME280;36494;50.730;-1.932;2023-06-26T10:32:00;101609.25;;;20.92;100.00
49645;BME280;36494;50.730;-1.932;2023-06-26T10:34:24;101615.05;;;20.65;100.00
49645;BME280;36494;50.730;-1.932;2023-06-26T10:36:59;101618.21;;;20.70;100.00
49645;BME280;36494;50.730;-1.932;2023-06-26T10:39:14;101621.63;;;20.59;100.00
49645;BME280;36494;50.730;-1.932;2023-06-26T10:41:41;101620.05;;;20.51;100.00
49645;BME280;36494;50.730;-1.932;2023-06-26T10:44:08;101621.23;;;20.61;100.00
49645;BME280;36494;50.730;-1.932;2023-06-26T10:46:33;101623.10;;;20.45;100.00
49645;BME280;36494;50.730;-1.932;2023-06-26T10:48:56;101629.06;;;20.57;100.00
49645;BME280;36494;50.730;-1.932;2023-06-26T10:51:20;101625.98;;;20.55;100.00
49645;BME280;36494;50.730;-1.932;2023-06-26T10:53:50;101630.40;;;20.46;100.00
49645;BME280;36494;50.730;-1.932;2023-06-26T10:56:12;101635.94;;;20.16;100.00
49645;BME280;36494;50.730;-1.932;2023-06-26T10:58:41;101639.29;;;20.07;100.00
49645;BME280;36494;50.730;-1.932;2023-06-26T11:01:17;101641.73;;;20.07;100.00
49645;BME280;36494;50.730;-1.932;2023-06-26T11:03:29;101634.34;;;20.14;100.00
49645;BME280;36494;50.730;-1.932;2023-06-26T11:08:18;101634.44;;;20.26;100.00
49645;BME280;36494;50.730;-1.932;2023-06-26T11:10:50;101640.58;;;20.44;100.00
49645;BME280;36494;50.730;-1.932;2023-06-26T11:13:10;101641.14;;;20.55;100.00
49645;BME280;36494;50.730;-1.932;2023-06-26T11:15:35;101637.06;;;20.84;100.00
49645;BME280;36494;50.730;-1.932;2023-06-26T11:18:00;101630.25;;;20.86;100.00
49645;BME280;36494;50.730;-1.932;2023-06-26T11:20:25;101630.87;;;20.60;100.00
49645;BME280;36494;50.730;-1.932;2023-06-26T11:22:52;101632.38;;;20.79;100.00
49645;BME280;36494;50.730;-1.932;2023-06-26T11:25:15;101632.76;;;20.79;100.00
49645;BME280;36494;50.730;-1.932;2023-06-26T11:27:41;101625.64;;;20.78;100.00
49645;BME280;36494;50.730;-1.932;2023-06-26T11:30:07;101626.37;;;21.01;100.00
49645;BME280;36494;50.730;-1.932;2023-06-26T11:32:31;101627.81;;;21.21;100.00
49645;BME280;36494;50.730;-1.932;2023-06-26T11:34:56;101631.11;;;21.24;100.00
49645;BME280;36494;50.730;-1.932;2023-06-26T11:37:22;101646.07;;;21.22;100.00
49645;BME280;36494;50.730;-1.932;2023-06-26T11:39:47;101646.85;;;21.22;100.00
49645;BME280;36494;50.730;-1.932;2023-06-26T11:42:12;101647.03;;;21.15;100.00
49645;BME280;36494;50.730;-1.932;2023-06-26T11:44:41;101653.59;;;20.95;100.00
49645;BME280;36494;50.730;-1.932;2023-06-26T11:47:04;101662.61;;;20.93;100.00
49645;BME280;36494;50.730;-1.932;2023-06-26T11:49:29;101655.02;;;20.93;100.00
49645;BME280;36494;50.730;-1.932;2023-06-26T11:51:54;101659.74;;;20.79;100.00
49645;BME280;36494;50.730;-1.932;2023-06-26T11:54:25;101673.16;;;20.77;100.00
49645;BME280;36494;50.730;-1.932;2023-06-26T11:56:54;101684.07;;;20.77;100.00
49645;BME280;36494;50.730;-1.932;2023-06-26T11:59:11;101689.52;;;20.58;100.00
49645;BME280;36494;50.730;-1.932;2023-06-26T12:01:36;101688.20;;;20.27;100.00
49645;BME280;36494;50.730;-1.932;2023-06-26T12:04:03;101687.24;;;20.12;100.00
49645;BME280;36494;50.730;-1.932;2023-06-26T12:06:27;101685.17;;;19.96;100.00
49645;BME280;36494;50.730;-1.932;2023-06-26T12:08:52;101686.50;;;20.27;100.00
49645;BME280;36494;50.730;-1.932;2023-06-26T12:11:17;101678.03;;;20.40;100.00
49645;BME280;36494;50.730;-1.932;2023-06-26T12:13:42;101671.32;;;20.65;100.00
49645;BME280;36494;50.730;-1.932;2023-06-26T12:16:08;101665.85;;;20.90;100.00
49645;BME280;36494;50.730;-1.932;2023-06-26T12:18:34;101662.79;;;20.98;100.00
49645;BME280;36494;50.730;-1.932;2023-06-26T12:20:59;101657.58;;;21.16;100.00
49645;BME280;36494;50.730;-1.932;2023-06-26T12:23:24;101651.80;;;21.46;100.00
49645;BME280;36494;50.730;-1.932;2023-06-26T12:25:49;101657.22;;;21.47;100.00